CMP273 MPTO-SEGU
Flight info
| Callsign | CMP273 |
|---|---|
| Flight time | 1h 44m |
| Altitude | 36000 |
| Route | TORIL BUXOS UL780 UGUPI |
| Aircraft | B738/M-SDE3FGHIRWY/S |
Departure
| Time | 2026-04-25 17:22 |
|---|---|
| Airport | Tocumen International Airport (MPTO) |
Arrival
| Time | 2026-04-25 19:06 |
|---|---|
| Airport | José Joaquín de Olmedo International Airport (SEGU) |
| Time | Latitude | Longitude | Altitude | Speed | Heading |
|---|---|---|---|---|---|
| 2026-04-25 16:40 | 9.06438 | -79.38708 | 49 ft | 0 kts | 22° |
| 2026-04-25 17:11 | 9.06424 | -79.38713 | 48 ft | 4 kts | 30° |
| 2026-04-25 17:12 | 9.06410 | -79.38723 | 49 ft | 4 kts | 48° |
| 2026-04-25 17:12 | 9.06399 | -79.38745 | 49 ft | 4 kts | 99° |
| 2026-04-25 17:12 | 9.06401 | -79.38754 | 49 ft | 0 kts | 119° |
| 2026-04-25 17:14 | 9.06399 | -79.38751 | 49 ft | 2 kts | 119° |
| 2026-04-25 17:15 | 9.06388 | -79.38729 | 49 ft | 5 kts | 119° |
| 2026-04-25 17:15 | 9.06364 | -79.38687 | 47 ft | 8 kts | 119° |
| 2026-04-25 17:15 | 9.06331 | -79.38628 | 47 ft | 11 kts | 119° |
| 2026-04-25 17:15 | 9.06271 | -79.38595 | 48 ft | 11 kts | 195° |
| 2026-04-25 17:16 | 9.06206 | -79.38629 | 46 ft | 10 kts | 208° |
| 2026-04-25 17:16 | 9.06143 | -79.38664 | 47 ft | 10 kts | 208° |
| 2026-04-25 17:16 | 9.06083 | -79.38698 | 47 ft | 10 kts | 210° |
| 2026-04-25 17:16 | 9.06026 | -79.38731 | 46 ft | 9 kts | 210° |
| 2026-04-25 17:17 | 9.05970 | -79.38764 | 47 ft | 9 kts | 210° |
| 2026-04-25 17:17 | 9.05915 | -79.38795 | 47 ft | 9 kts | 208° |
| 2026-04-25 17:17 | 9.05861 | -79.38826 | 47 ft | 9 kts | 209° |
| 2026-04-25 17:17 | 9.05808 | -79.38856 | 45 ft | 9 kts | 210° |
| 2026-04-25 17:18 | 9.05755 | -79.38886 | 46 ft | 9 kts | 209° |
| 2026-04-25 17:18 | 9.05702 | -79.38916 | 47 ft | 9 kts | 209° |
| 2026-04-25 17:18 | 9.05647 | -79.38948 | 45 ft | 10 kts | 210° |
| 2026-04-25 17:18 | 9.05584 | -79.38984 | 46 ft | 11 kts | 210° |
| 2026-04-25 17:19 | 9.05514 | -79.39025 | 48 ft | 12 kts | 210° |
| 2026-04-25 17:19 | 9.05435 | -79.39070 | 48 ft | 14 kts | 209° |
| 2026-04-25 17:19 | 9.05347 | -79.39120 | 46 ft | 15 kts | 209° |
| 2026-04-25 17:19 | 9.05249 | -79.39175 | 47 ft | 17 kts | 209° |
| 2026-04-25 17:20 | 9.05139 | -79.39238 | 46 ft | 19 kts | 210° |
| 2026-04-25 17:20 | 9.05027 | -79.39303 | 44 ft | 18 kts | 210° |
| 2026-04-25 17:20 | 9.04917 | -79.39365 | 42 ft | 18 kts | 209° |
| 2026-04-25 17:20 | 9.04816 | -79.39347 | 41 ft | 17 kts | 123° |
| 2026-04-25 17:21 | 9.04801 | -79.39242 | 41 ft | 16 kts | 41° |
| 2026-04-25 17:21 | 9.04933 | -79.39163 | 40 ft | 46 kts | 29° |
| 2026-04-25 17:21 | 9.05455 | -79.38864 | 45 ft | 124 kts | 30° |
| 2026-04-25 17:21 | 9.06402 | -79.38322 | 63 ft | 186 kts | 28° |
| 2026-04-25 17:22 | 9.07594 | -79.37669 | 753 ft | 200 kts | 30° |
| 2026-04-25 17:22 | 9.08393 | -79.37221 | 1461 ft | 196 kts | 37° |
| 2026-04-25 17:22 | 9.09430 | -79.35754 | 2322 ft | 209 kts | 79° |
| 2026-04-25 17:22 | 9.09330 | -79.34212 | 2496 ft | 232 kts | 110° |
| 2026-04-25 17:23 | 9.08767 | -79.32639 | 2989 ft | 243 kts | 109° |
| 2026-04-25 17:23 | 9.08259 | -79.30975 | 3561 ft | 254 kts | 106° |
| 2026-04-25 17:23 | 9.07820 | -79.29215 | 4294 ft | 260 kts | 103° |
| 2026-04-25 17:23 | 9.07464 | -79.27431 | 5104 ft | 264 kts | 101° |
| 2026-04-25 17:24 | 9.07151 | -79.25590 | 5898 ft | 268 kts | 99° |
| 2026-04-25 17:24 | 9.06849 | -79.23713 | 6603 ft | 273 kts | 99° |
| 2026-04-25 17:24 | 9.06541 | -79.21817 | 6930 ft | 274 kts | 103° |
| 2026-04-25 17:24 | 9.05708 | -79.20102 | 6961 ft | 275 kts | 134° |
| 2026-04-25 17:25 | 9.04137 | -79.19030 | 6974 ft | 277 kts | 162° |
| 2026-04-25 17:25 | 9.02202 | -79.18830 | 7236 ft | 287 kts | 189° |
| 2026-04-25 17:25 | 9.00304 | -79.19427 | 8012 ft | 287 kts | 204° |
| 2026-04-25 17:25 | 8.98485 | -79.20274 | 8802 ft | 289 kts | 206° |
| 2026-04-25 17:26 | 8.96659 | -79.21159 | 9505 ft | 294 kts | 206° |
| 2026-04-25 17:26 | 8.94803 | -79.22055 | 10226 ft | 297 kts | 206° |
| 2026-04-25 17:26 | 8.92935 | -79.22947 | 10985 ft | 298 kts | 206° |
| 2026-04-25 17:26 | 8.91049 | -79.23839 | 11735 ft | 300 kts | 206° |
| 2026-04-25 17:27 | 8.89148 | -79.24730 | 12465 ft | 302 kts | 206° |
| 2026-04-25 17:27 | 8.87227 | -79.25627 | 13148 ft | 306 kts | 206° |
| 2026-04-25 17:27 | 8.85285 | -79.26532 | 13802 ft | 310 kts | 206° |
| 2026-04-25 17:27 | 8.83984 | -79.27138 | 14251 ft | 311 kts | 205° |
| 2026-04-25 17:28 | 8.81264 | -79.28407 | 14557 ft | 336 kts | 205° |
| 2026-04-25 17:28 | 8.79079 | -79.29426 | 14707 ft | 355 kts | 205° |
| 2026-04-25 17:28 | 8.76780 | -79.30498 | 14855 ft | 372 kts | 205° |
| 2026-04-25 17:28 | 8.74401 | -79.31607 | 15251 ft | 380 kts | 205° |
| 2026-04-25 17:29 | 8.71986 | -79.32731 | 15802 ft | 384 kts | 205° |
| 2026-04-25 17:29 | 8.69556 | -79.33863 | 16382 ft | 386 kts | 205° |
| 2026-04-25 17:29 | 8.67108 | -79.35004 | 16915 ft | 389 kts | 205° |
| 2026-04-25 17:29 | 8.64643 | -79.36152 | 17420 ft | 392 kts | 205° |
| 2026-04-25 17:30 | 8.62156 | -79.37310 | 17909 ft | 395 kts | 205° |
| 2026-04-25 17:30 | 8.59628 | -79.38419 | 18370 ft | 399 kts | 199° |
| 2026-04-25 17:30 | 8.56915 | -79.39050 | 18808 ft | 403 kts | 191° |
| 2026-04-25 17:30 | 8.54136 | -79.39507 | 19259 ft | 406 kts | 189° |
| 2026-04-25 17:31 | 8.51334 | -79.39930 | 19672 ft | 410 kts | 189° |
| 2026-04-25 17:31 | 8.48502 | -79.40358 | 20090 ft | 413 kts | 189° |
| 2026-04-25 17:31 | 8.45650 | -79.40803 | 20504 ft | 416 kts | 189° |
| 2026-04-25 17:31 | 8.42786 | -79.41265 | 20911 ft | 418 kts | 189° |
| 2026-04-25 17:32 | 8.39899 | -79.41742 | 21259 ft | 422 kts | 190° |
| 2026-04-25 17:32 | 8.36992 | -79.42230 | 21621 ft | 426 kts | 190° |
| 2026-04-25 17:32 | 8.34061 | -79.42726 | 22010 ft | 428 kts | 190° |
| 2026-04-25 17:32 | 8.31121 | -79.43226 | 22373 ft | 430 kts | 190° |
| 2026-04-25 17:33 | 8.28196 | -79.43724 | 22711 ft | 433 kts | 190° |
| 2026-04-25 17:33 | 8.25212 | -79.44231 | 23038 ft | 436 kts | 190° |
| 2026-04-25 17:33 | 8.22212 | -79.44741 | 23332 ft | 439 kts | 190° |
| 2026-04-25 17:33 | 8.19192 | -79.45255 | 23639 ft | 441 kts | 190° |
| 2026-04-25 17:34 | 8.16162 | -79.45771 | 23941 ft | 443 kts | 190° |
| 2026-04-25 17:34 | 8.13113 | -79.46288 | 24237 ft | 445 kts | 190° |
| 2026-04-25 17:34 | 8.10051 | -79.46808 | 24528 ft | 447 kts | 190° |
| 2026-04-25 17:34 | 8.06974 | -79.47331 | 24851 ft | 448 kts | 190° |
| 2026-04-25 17:35 | 8.03899 | -79.47853 | 25181 ft | 449 kts | 190° |
| 2026-04-25 17:35 | 8.00814 | -79.48376 | 25469 ft | 450 kts | 190° |
| 2026-04-25 17:35 | 7.97720 | -79.48902 | 25747 ft | 452 kts | 190° |
| 2026-04-25 17:35 | 7.94614 | -79.49429 | 26029 ft | 453 kts | 190° |
| 2026-04-25 17:36 | 7.91496 | -79.49958 | 26303 ft | 455 kts | 190° |
| 2026-04-25 17:36 | 7.88368 | -79.50489 | 26566 ft | 456 kts | 190° |
| 2026-04-25 17:36 | 7.85238 | -79.51020 | 26829 ft | 457 kts | 189° |
| 2026-04-25 17:36 | 7.82095 | -79.51553 | 27094 ft | 459 kts | 190° |
| 2026-04-25 17:37 | 7.78944 | -79.52088 | 27358 ft | 459 kts | 190° |
| 2026-04-25 17:37 | 7.75787 | -79.52624 | 27606 ft | 461 kts | 190° |
| 2026-04-25 17:37 | 7.72624 | -79.53160 | 27834 ft | 462 kts | 190° |
| 2026-04-25 17:37 | 7.69447 | -79.53698 | 28053 ft | 464 kts | 190° |
| 2026-04-25 17:38 | 7.66256 | -79.54239 | 28277 ft | 465 kts | 190° |
| 2026-04-25 17:38 | 7.64143 | -79.54597 | 28421 ft | 466 kts | 190° |
| 2026-04-25 17:38 | 7.59860 | -79.55322 | 28743 ft | 467 kts | 190° |
| 2026-04-25 17:38 | 7.56651 | -79.55865 | 28980 ft | 468 kts | 189° |
| 2026-04-25 17:39 | 7.53436 | -79.56410 | 29162 ft | 469 kts | 189° |
| 2026-04-25 17:39 | 7.50256 | -79.56949 | 29367 ft | 470 kts | 189° |
| 2026-04-25 17:39 | 7.47026 | -79.57496 | 29612 ft | 470 kts | 189° |
| 2026-04-25 17:39 | 7.43802 | -79.58042 | 29896 ft | 469 kts | 189° |
| 2026-04-25 17:40 | 7.40589 | -79.58586 | 30199 ft | 468 kts | 189° |
| 2026-04-25 17:40 | 7.37382 | -79.59129 | 30497 ft | 467 kts | 189° |
| 2026-04-25 17:40 | 7.34177 | -79.59671 | 30788 ft | 466 kts | 189° |
| 2026-04-25 17:40 | 7.30989 | -79.60211 | 31116 ft | 464 kts | 189° |
| 2026-04-25 17:41 | 7.27806 | -79.60722 | 31429 ft | 463 kts | 186° |
| 2026-04-25 17:41 | 7.24598 | -79.60954 | 31721 ft | 461 kts | 182° |
| 2026-04-25 17:41 | 7.21395 | -79.61047 | 31998 ft | 461 kts | 181° |
| 2026-04-25 17:41 | 7.18189 | -79.61098 | 32256 ft | 461 kts | 180° |
| 2026-04-25 17:42 | 7.14989 | -79.61142 | 32636 ft | 458 kts | 180° |
| 2026-04-25 17:42 | 7.11809 | -79.61194 | 32976 ft | 456 kts | 180° |
| 2026-04-25 17:42 | 7.08646 | -79.61259 | 33276 ft | 455 kts | 180° |
| 2026-04-25 17:42 | 7.05484 | -79.61336 | 33579 ft | 454 kts | 180° |
| 2026-04-25 17:43 | 7.02333 | -79.61420 | 33887 ft | 452 kts | 180° |
| 2026-04-25 17:43 | 6.99199 | -79.61506 | 34211 ft | 450 kts | 180° |
| 2026-04-25 17:43 | 6.96073 | -79.61596 | 34498 ft | 449 kts | 180° |
| 2026-04-25 17:43 | 6.92947 | -79.61684 | 34708 ft | 449 kts | 180° |
| 2026-04-25 17:44 | 6.89821 | -79.61772 | 34939 ft | 449 kts | 180° |
| 2026-04-25 17:44 | 6.86697 | -79.61860 | 35171 ft | 449 kts | 180° |
| 2026-04-25 17:44 | 6.83583 | -79.61947 | 35431 ft | 448 kts | 180° |
| 2026-04-25 17:44 | 6.80476 | -79.62034 | 35661 ft | 447 kts | 180° |
| 2026-04-25 17:45 | 6.77363 | -79.62121 | 35841 ft | 447 kts | 180° |
| 2026-04-25 17:45 | 6.76350 | -79.62149 | 35897 ft | 448 kts | 180° |
| 2026-04-25 17:45 | 6.67982 | -79.62382 | 35944 ft | 449 kts | 180° |
| 2026-04-25 17:46 | 6.61757 | -79.62557 | 35939 ft | 445 kts | 180° |
| 2026-04-25 17:46 | 6.55583 | -79.62730 | 35943 ft | 443 kts | 180° |
| 2026-04-25 17:47 | 6.49470 | -79.62901 | 35936 ft | 441 kts | 180° |
| 2026-04-25 17:47 | 6.43339 | -79.63071 | 35935 ft | 440 kts | 180° |
| 2026-04-25 17:48 | 6.34148 | -79.63330 | 35940 ft | 442 kts | 180° |
| 2026-04-25 17:49 | 6.27983 | -79.63501 | 35939 ft | 444 kts | 180° |
| 2026-04-25 17:49 | 6.21789 | -79.63674 | 35942 ft | 446 kts | 180° |
| 2026-04-25 17:50 | 6.15568 | -79.63847 | 35939 ft | 449 kts | 180° |
| 2026-04-25 17:50 | 6.09306 | -79.64022 | 35938 ft | 451 kts | 180° |
| 2026-04-25 17:51 | 6.03027 | -79.64197 | 35937 ft | 452 kts | 180° |
| 2026-04-25 17:51 | 5.96733 | -79.64370 | 35935 ft | 452 kts | 180° |
| 2026-04-25 17:52 | 5.90436 | -79.64547 | 35934 ft | 452 kts | 180° |
| 2026-04-25 17:52 | 5.84146 | -79.64723 | 35931 ft | 451 kts | 180° |
| 2026-04-25 17:53 | 5.77923 | -79.64898 | 35933 ft | 450 kts | 180° |
| 2026-04-25 17:53 | 5.71671 | -79.65071 | 35933 ft | 448 kts | 180° |
| 2026-04-25 17:54 | 5.65446 | -79.65245 | 35933 ft | 447 kts | 180° |
| 2026-04-25 17:54 | 5.59236 | -79.65418 | 35935 ft | 446 kts | 180° |
| 2026-04-25 17:55 | 5.53036 | -79.65591 | 35934 ft | 445 kts | 180° |
| 2026-04-25 17:55 | 5.46846 | -79.65764 | 35936 ft | 445 kts | 180° |
| 2026-04-25 17:56 | 5.40658 | -79.65936 | 35936 ft | 445 kts | 180° |
| 2026-04-25 17:56 | 5.34473 | -79.66109 | 35936 ft | 445 kts | 180° |
| 2026-04-25 17:57 | 5.28287 | -79.66280 | 35935 ft | 445 kts | 180° |
| 2026-04-25 17:57 | 5.22086 | -79.66453 | 35938 ft | 446 kts | 180° |
| 2026-04-25 17:58 | 5.15869 | -79.66629 | 35938 ft | 448 kts | 180° |
| 2026-04-25 17:58 | 5.09625 | -79.66889 | 35937 ft | 450 kts | 181° |
| 2026-04-25 17:59 | 5.03368 | -79.67186 | 35935 ft | 451 kts | 181° |
| 2026-04-25 17:59 | 4.97131 | -79.67475 | 35936 ft | 452 kts | 181° |
| 2026-04-25 18:00 | 4.90827 | -79.67759 | 36109 ft | 454 kts | 181° |
| 2026-04-25 18:00 | 4.87678 | -79.67900 | 36392 ft | 452 kts | 180° |
| 2026-04-25 18:00 | 4.84550 | -79.68038 | 36632 ft | 450 kts | 181° |
| 2026-04-25 18:00 | 4.81421 | -79.68176 | 36790 ft | 451 kts | 181° |
| 2026-04-25 18:01 | 4.78293 | -79.68317 | 37080 ft | 448 kts | 181° |
| 2026-04-25 18:01 | 4.75197 | -79.68457 | 37425 ft | 443 kts | 181° |
| 2026-04-25 18:01 | 4.72130 | -79.68596 | 37693 ft | 441 kts | 181° |
| 2026-04-25 18:01 | 4.69062 | -79.68734 | 37799 ft | 442 kts | 181° |
| 2026-04-25 18:02 | 4.65993 | -79.68871 | 37906 ft | 442 kts | 181° |
| 2026-04-25 18:02 | 4.59822 | -79.69145 | 37940 ft | 446 kts | 181° |
| 2026-04-25 18:03 | 4.54672 | -79.69375 | 37958 ft | 447 kts | 181° |
| 2026-04-25 18:03 | 4.48438 | -79.69653 | 37954 ft | 449 kts | 181° |
| 2026-04-25 18:04 | 4.42189 | -79.69932 | 37951 ft | 450 kts | 181° |
| 2026-04-25 18:04 | 4.35929 | -79.70211 | 37947 ft | 450 kts | 181° |
| 2026-04-25 18:05 | 4.29676 | -79.70491 | 37958 ft | 449 kts | 181° |
| 2026-04-25 18:05 | 4.23443 | -79.70769 | 37955 ft | 448 kts | 181° |
| 2026-04-25 18:06 | 4.17233 | -79.71046 | 37947 ft | 446 kts | 181° |
| 2026-04-25 18:06 | 4.11061 | -79.71321 | 37951 ft | 443 kts | 181° |
| 2026-04-25 18:07 | 4.04931 | -79.71595 | 37943 ft | 439 kts | 181° |
| 2026-04-25 18:07 | 3.98837 | -79.71866 | 37939 ft | 437 kts | 181° |
| 2026-04-25 18:08 | 3.92813 | -79.72135 | 37952 ft | 435 kts | 181° |
| 2026-04-25 18:08 | 3.86733 | -79.72406 | 37950 ft | 434 kts | 181° |
| 2026-04-25 18:09 | 3.80735 | -79.72673 | 37961 ft | 435 kts | 181° |
| 2026-04-25 18:09 | 3.74684 | -79.72942 | 37962 ft | 436 kts | 181° |
| 2026-04-25 18:10 | 3.68606 | -79.73212 | 37958 ft | 438 kts | 181° |
| 2026-04-25 18:10 | 3.62508 | -79.73485 | 37956 ft | 440 kts | 181° |
| 2026-04-25 18:11 | 3.56378 | -79.73758 | 37957 ft | 442 kts | 181° |
| 2026-04-25 18:11 | 3.50224 | -79.74031 | 37958 ft | 443 kts | 181° |
| 2026-04-25 18:12 | 3.44050 | -79.74306 | 37953 ft | 445 kts | 181° |
| 2026-04-25 18:12 | 3.37857 | -79.74581 | 37949 ft | 446 kts | 181° |
| 2026-04-25 18:13 | 3.31642 | -79.74857 | 37957 ft | 447 kts | 181° |
| 2026-04-25 18:13 | 3.25428 | -79.75134 | 37955 ft | 447 kts | 181° |
| 2026-04-25 18:14 | 3.16111 | -79.75550 | 37957 ft | 447 kts | 181° |
| 2026-04-25 18:14 | 3.09902 | -79.75827 | 37958 ft | 446 kts | 181° |
| 2026-04-25 18:15 | 3.03706 | -79.76102 | 37955 ft | 446 kts | 181° |
| 2026-04-25 18:15 | 2.97512 | -79.76377 | 37951 ft | 445 kts | 181° |
| 2026-04-25 18:16 | 2.91319 | -79.76653 | 37955 ft | 445 kts | 181° |
| 2026-04-25 18:17 | 2.82024 | -79.77066 | 37947 ft | 446 kts | 182° |
| 2026-04-25 18:17 | 2.75831 | -79.77341 | 37958 ft | 446 kts | 182° |
| 2026-04-25 18:18 | 2.69623 | -79.77617 | 37956 ft | 447 kts | 182° |
| 2026-04-25 18:18 | 2.63403 | -79.77894 | 37953 ft | 448 kts | 182° |
| 2026-04-25 18:19 | 2.57169 | -79.78170 | 37959 ft | 449 kts | 182° |
| 2026-04-25 18:19 | 2.50917 | -79.78448 | 37952 ft | 450 kts | 182° |
| 2026-04-25 18:20 | 2.44654 | -79.78727 | 37970 ft | 451 kts | 182° |
| 2026-04-25 18:20 | 2.38369 | -79.79006 | 37947 ft | 453 kts | 182° |
| 2026-04-25 18:21 | 2.32105 | -79.79285 | 37941 ft | 454 kts | 182° |
| 2026-04-25 18:21 | 2.25778 | -79.79566 | 37936 ft | 455 kts | 182° |
| 2026-04-25 18:22 | 2.19441 | -79.79848 | 37937 ft | 456 kts | 182° |
| 2026-04-25 18:22 | 2.13104 | -79.80130 | 37936 ft | 456 kts | 182° |
| 2026-04-25 18:23 | 2.06758 | -79.80413 | 37935 ft | 456 kts | 182° |
| 2026-04-25 18:23 | 2.00430 | -79.80693 | 37932 ft | 455 kts | 182° |
| 2026-04-25 18:24 | 1.94101 | -79.80974 | 37935 ft | 455 kts | 182° |
| 2026-04-25 18:24 | 1.87776 | -79.81254 | 37935 ft | 454 kts | 182° |
| 2026-04-25 18:25 | 1.81463 | -79.81534 | 37936 ft | 454 kts | 182° |
| 2026-04-25 18:25 | 1.75158 | -79.81814 | 37935 ft | 453 kts | 182° |
| 2026-04-25 18:26 | 1.68862 | -79.82093 | 37936 ft | 453 kts | 182° |
| 2026-04-25 18:26 | 1.62571 | -79.82371 | 37933 ft | 453 kts | 182° |
| 2026-04-25 18:27 | 1.56279 | -79.82651 | 37936 ft | 452 kts | 182° |
| 2026-04-25 18:27 | 1.49987 | -79.82932 | 37936 ft | 452 kts | 182° |
| 2026-04-25 18:28 | 1.43693 | -79.83211 | 37936 ft | 453 kts | 182° |
| 2026-04-25 18:28 | 1.37401 | -79.83124 | 37940 ft | 453 kts | 174° |
| 2026-04-25 18:29 | 1.28027 | -79.82014 | 37934 ft | 453 kts | 173° |
| 2026-04-25 18:30 | 1.15484 | -79.80639 | 37935 ft | 453 kts | 174° |
| 2026-04-25 18:30 | 1.09209 | -79.80003 | 37937 ft | 454 kts | 174° |
| 2026-04-25 18:31 | 1.02925 | -79.79368 | 37933 ft | 454 kts | 174° |
| 2026-04-25 18:31 | 0.96638 | -79.78735 | 37927 ft | 454 kts | 174° |
| 2026-04-25 18:32 | 0.90348 | -79.78100 | 37939 ft | 454 kts | 174° |
| 2026-04-25 18:32 | 0.84059 | -79.77463 | 37944 ft | 455 kts | 174° |
| 2026-04-25 18:33 | 0.77755 | -79.76824 | 37945 ft | 456 kts | 174° |
| 2026-04-25 18:33 | 0.71428 | -79.76183 | 37941 ft | 457 kts | 174° |
| 2026-04-25 18:34 | 0.65102 | -79.75539 | 37958 ft | 457 kts | 174° |
| 2026-04-25 18:34 | 0.58767 | -79.74896 | 37943 ft | 458 kts | 174° |
| 2026-04-25 18:35 | 0.52433 | -79.74253 | 37964 ft | 458 kts | 174° |
| 2026-04-25 18:35 | 0.46105 | -79.73611 | 37428 ft | 465 kts | 174° |
| 2026-04-25 18:36 | 0.42890 | -79.73285 | 36915 ft | 463 kts | 173° |
| 2026-04-25 18:36 | 0.39686 | -79.72962 | 36358 ft | 462 kts | 173° |
| 2026-04-25 18:36 | 0.36493 | -79.72640 | 35833 ft | 461 kts | 172° |
| 2026-04-25 18:36 | 0.33315 | -79.72319 | 35426 ft | 457 kts | 172° |
| 2026-04-25 18:37 | 0.30167 | -79.72001 | 35008 ft | 453 kts | 171° |
| 2026-04-25 18:37 | 0.27044 | -79.71685 | 34581 ft | 449 kts | 171° |
| 2026-04-25 18:37 | 0.23942 | -79.71371 | 34173 ft | 446 kts | 170° |
| 2026-04-25 18:37 | 0.20867 | -79.71060 | 33760 ft | 442 kts | 169° |
| 2026-04-25 18:38 | 0.17821 | -79.70752 | 33362 ft | 439 kts | 170° |
| 2026-04-25 18:38 | 0.14788 | -79.70445 | 32961 ft | 435 kts | 170° |
| 2026-04-25 18:38 | 0.11786 | -79.70141 | 32552 ft | 432 kts | 170° |
| 2026-04-25 18:38 | 0.08809 | -79.69840 | 32159 ft | 429 kts | 170° |
| 2026-04-25 18:39 | 0.05850 | -79.69539 | 31765 ft | 426 kts | 170° |
| 2026-04-25 18:39 | 0.02912 | -79.69241 | 31369 ft | 423 kts | 170° |
| 2026-04-25 18:39 | -0.00011 | -79.68943 | 30975 ft | 420 kts | 170° |
| 2026-04-25 18:39 | -0.02909 | -79.68649 | 30585 ft | 418 kts | 170° |
| 2026-04-25 18:40 | -0.05795 | -79.68357 | 30195 ft | 415 kts | 170° |
| 2026-04-25 18:40 | -0.08661 | -79.68067 | 29812 ft | 412 kts | 170° |
| 2026-04-25 18:40 | -0.11520 | -79.67885 | 29419 ft | 411 kts | 175° |
| 2026-04-25 18:40 | -0.14373 | -79.67934 | 29031 ft | 410 kts | 179° |
| 2026-04-25 18:41 | -0.17217 | -79.68078 | 28651 ft | 407 kts | 180° |
| 2026-04-25 18:41 | -0.20032 | -79.68244 | 28261 ft | 405 kts | 180° |
| 2026-04-25 18:41 | -0.22835 | -79.68402 | 27879 ft | 402 kts | 180° |
| 2026-04-25 18:41 | -0.25624 | -79.68544 | 27485 ft | 400 kts | 180° |
| 2026-04-25 18:42 | -0.28397 | -79.68671 | 27085 ft | 398 kts | 180° |
| 2026-04-25 18:42 | -0.29299 | -79.68711 | 26963 ft | 397 kts | 180° |
| 2026-04-25 18:42 | -0.33869 | -79.68896 | 26324 ft | 394 kts | 180° |
| 2026-04-25 18:42 | -0.36603 | -79.69003 | 25924 ft | 393 kts | 180° |
| 2026-04-25 18:43 | -0.39314 | -79.69107 | 25533 ft | 391 kts | 180° |
| 2026-04-25 18:43 | -0.42029 | -79.69211 | 25149 ft | 389 kts | 180° |
| 2026-04-25 18:43 | -0.44726 | -79.69314 | 24799 ft | 387 kts | 180° |
| 2026-04-25 18:43 | -0.47403 | -79.69416 | 24433 ft | 384 kts | 181° |
| 2026-04-25 18:44 | -0.50072 | -79.69517 | 24062 ft | 382 kts | 181° |
| 2026-04-25 18:44 | -0.52723 | -79.69618 | 23683 ft | 381 kts | 181° |
| 2026-04-25 18:44 | -0.55364 | -79.69719 | 23310 ft | 379 kts | 181° |
| 2026-04-25 18:44 | -0.57991 | -79.69819 | 22934 ft | 377 kts | 181° |
| 2026-04-25 18:45 | -0.60608 | -79.69919 | 22559 ft | 375 kts | 181° |
| 2026-04-25 18:45 | -0.63208 | -79.70018 | 22182 ft | 374 kts | 181° |
| 2026-04-25 18:45 | -0.65807 | -79.70117 | 21797 ft | 372 kts | 181° |
| 2026-04-25 18:45 | -0.68389 | -79.70216 | 21419 ft | 371 kts | 181° |
| 2026-04-25 18:46 | -0.70959 | -79.70312 | 21049 ft | 369 kts | 181° |
| 2026-04-25 18:46 | -0.73515 | -79.70410 | 20675 ft | 367 kts | 181° |
| 2026-04-25 18:46 | -0.76063 | -79.70507 | 20309 ft | 365 kts | 182° |
| 2026-04-25 18:46 | -0.78593 | -79.70604 | 19937 ft | 363 kts | 182° |
| 2026-04-25 18:47 | -0.81111 | -79.70700 | 19567 ft | 361 kts | 182° |
| 2026-04-25 18:47 | -0.83619 | -79.70796 | 19206 ft | 359 kts | 182° |
| 2026-04-25 18:47 | -0.86112 | -79.70892 | 18841 ft | 357 kts | 182° |
| 2026-04-25 18:47 | -0.88585 | -79.70986 | 18475 ft | 355 kts | 182° |
| 2026-04-25 18:48 | -0.91049 | -79.71080 | 18117 ft | 353 kts | 182° |
| 2026-04-25 18:48 | -0.93494 | -79.71174 | 17772 ft | 350 kts | 182° |
| 2026-04-25 18:48 | -0.95924 | -79.71267 | 17401 ft | 349 kts | 182° |
| 2026-04-25 18:48 | -0.98343 | -79.71359 | 17024 ft | 347 kts | 182° |
| 2026-04-25 18:49 | -1.00757 | -79.71451 | 16620 ft | 347 kts | 182° |
| 2026-04-25 18:49 | -1.03159 | -79.71543 | 16260 ft | 345 kts | 182° |
| 2026-04-25 18:49 | -1.04748 | -79.71603 | 16020 ft | 344 kts | 182° |
| 2026-04-25 18:49 | -1.07931 | -79.71723 | 15536 ft | 341 kts | 182° |
| 2026-04-25 18:50 | -1.09499 | -79.71783 | 15317 ft | 340 kts | 182° |
| 2026-04-25 18:50 | -1.11858 | -79.71874 | 14957 ft | 338 kts | 182° |
| 2026-04-25 18:50 | -1.14201 | -79.71963 | 14606 ft | 336 kts | 182° |
| 2026-04-25 18:50 | -1.16531 | -79.72053 | 14268 ft | 334 kts | 182° |
| 2026-04-25 18:51 | -1.18840 | -79.72141 | 13918 ft | 332 kts | 182° |
| 2026-04-25 18:51 | -1.20366 | -79.72199 | 13689 ft | 330 kts | 182° |
| 2026-04-25 18:51 | -1.23430 | -79.72317 | 13228 ft | 328 kts | 182° |
| 2026-04-25 18:51 | -1.25704 | -79.72404 | 12888 ft | 326 kts | 182° |
| 2026-04-25 18:52 | -1.27961 | -79.72493 | 12547 ft | 323 kts | 182° |
| 2026-04-25 18:52 | -1.30186 | -79.72569 | 12211 ft | 317 kts | 181° |
| 2026-04-25 18:52 | -1.32376 | -79.72663 | 11877 ft | 316 kts | 183° |
| 2026-04-25 18:52 | -1.34578 | -79.72768 | 11547 ft | 314 kts | 181° |
| 2026-04-25 18:53 | -1.36754 | -79.72817 | 11218 ft | 312 kts | 182° |
| 2026-04-25 18:53 | -1.38940 | -79.72912 | 10877 ft | 313 kts | 182° |
| 2026-04-25 18:53 | -1.41087 | -79.73007 | 10557 ft | 312 kts | 182° |
| 2026-04-25 18:53 | -1.43241 | -79.73084 | 10351 ft | 306 kts | 182° |
| 2026-04-25 18:54 | -1.47409 | -79.73233 | 10084 ft | 290 kts | 182° |
| 2026-04-25 18:54 | -1.49395 | -79.73319 | 9942 ft | 283 kts | 183° |
| 2026-04-25 18:54 | -1.51331 | -79.73408 | 9667 ft | 282 kts | 183° |
| 2026-04-25 18:55 | -1.53284 | -79.73499 | 9397 ft | 280 kts | 183° |
| 2026-04-25 18:55 | -1.55224 | -79.73588 | 9120 ft | 279 kts | 183° |
| 2026-04-25 18:55 | -1.57160 | -79.73677 | 8829 ft | 278 kts | 183° |
| 2026-04-25 18:55 | -1.59089 | -79.73766 | 8548 ft | 277 kts | 183° |
| 2026-04-25 18:56 | -1.61010 | -79.73855 | 8276 ft | 276 kts | 183° |
| 2026-04-25 18:56 | -1.62927 | -79.73943 | 7991 ft | 275 kts | 183° |
| 2026-04-25 18:56 | -1.64838 | -79.74031 | 7708 ft | 274 kts | 183° |
| 2026-04-25 18:56 | -1.66741 | -79.74117 | 7417 ft | 274 kts | 183° |
| 2026-04-25 18:57 | -1.68639 | -79.74206 | 7142 ft | 272 kts | 183° |
| 2026-04-25 18:57 | -1.70523 | -79.74291 | 6862 ft | 271 kts | 183° |
| 2026-04-25 18:57 | -1.72402 | -79.74378 | 6583 ft | 270 kts | 183° |
| 2026-04-25 18:57 | -1.73671 | -79.74435 | 6396 ft | 269 kts | 183° |
| 2026-04-25 18:58 | -1.76145 | -79.74548 | 6032 ft | 269 kts | 183° |
| 2026-04-25 18:58 | -1.79878 | -79.74718 | 5476 ft | 267 kts | 183° |
| 2026-04-25 18:58 | -1.81729 | -79.74803 | 5201 ft | 266 kts | 183° |
| 2026-04-25 18:59 | -1.85413 | -79.74971 | 4717 ft | 262 kts | 183° |
| 2026-04-25 18:59 | -1.89033 | -79.75136 | 4297 ft | 256 kts | 183° |
| 2026-04-25 19:00 | -1.92497 | -79.75299 | 4061 ft | 243 kts | 186° |
| 2026-04-25 19:00 | -1.94055 | -79.75810 | 3944 ft | 233 kts | 212° |
| 2026-04-25 19:01 | -1.96778 | -79.77418 | 3694 ft | 227 kts | 211° |
| 2026-04-25 19:01 | -1.98128 | -79.78204 | 3496 ft | 221 kts | 211° |
| 2026-04-25 19:01 | -1.99435 | -79.78960 | 3262 ft | 214 kts | 210° |
| 2026-04-25 19:01 | -2.00704 | -79.79683 | 3137 ft | 203 kts | 210° |
| 2026-04-25 19:02 | -2.03085 | -79.81048 | 2676 ft | 194 kts | 210° |
| 2026-04-25 19:02 | -2.04240 | -79.81717 | 2434 ft | 188 kts | 210° |
| 2026-04-25 19:02 | -2.05345 | -79.82354 | 2181 ft | 178 kts | 210° |
| 2026-04-25 19:03 | -2.07051 | -79.83342 | 1804 ft | 164 kts | 210° |
| 2026-04-25 19:03 | -2.08358 | -79.84097 | 1534 ft | 158 kts | 209° |
| 2026-04-25 19:03 | -2.09294 | -79.84637 | 1301 ft | 154 kts | 209° |
| 2026-04-25 19:04 | -2.11254 | -79.85770 | 898 ft | 166 kts | 208° |
| 2026-04-25 19:04 | -2.12239 | -79.86353 | 686 ft | 164 kts | 210° |
| 2026-04-25 19:05 | -2.14234 | -79.87498 | 201 ft | 167 kts | 208° |
| 2026-04-25 19:05 | -2.16058 | -79.88548 | 26 ft | 114 kts | 211° |
| 2026-04-25 19:05 | -2.16558 | -79.88838 | 27 ft | 50 kts | 210° |
| 2026-04-25 19:06 | -2.16693 | -79.88916 | 26 ft | 10 kts | 212° |
| 2026-04-25 19:06 | -2.16656 | -79.89001 | 27 ft | 10 kts | 19° |
| 2026-04-25 19:06 | -2.16592 | -79.88967 | 27 ft | 11 kts | 30° |
| 2026-04-25 19:07 | -2.16468 | -79.88894 | 27 ft | 10 kts | 30° |
| 2026-04-25 19:07 | -2.16406 | -79.88858 | 27 ft | 10 kts | 30° |
| 2026-04-25 19:08 | -2.16276 | -79.88783 | 27 ft | 11 kts | 30° |
| 2026-04-25 19:08 | -2.16212 | -79.88746 | 27 ft | 11 kts | 30° |
| 2026-04-25 19:09 | -2.16009 | -79.88629 | 27 ft | 15 kts | 30° |
| 2026-04-25 19:09 | -2.15946 | -79.88592 | 27 ft | 17 kts | 30° |
| 2026-04-25 19:09 | -2.15654 | -79.88424 | 27 ft | 22 kts | 30° |
| 2026-04-25 19:10 | -2.15523 | -79.88348 | 27 ft | 21 kts | 30° |
| 2026-04-25 19:10 | -2.15395 | -79.88275 | 27 ft | 21 kts | 30° |
| 2026-04-25 19:10 | -2.15297 | -79.88222 | 27 ft | 14 kts | 11° |
| 2026-04-25 19:10 | -2.15229 | -79.88282 | 27 ft | 14 kts | 299° |
| 2026-04-25 19:11 | -2.15184 | -79.88364 | 28 ft | 13 kts | 298° |
| 2026-04-25 19:11 | -2.15112 | -79.88384 | 28 ft | 13 kts | 27° |
| 2026-04-25 19:11 | -2.15035 | -79.88340 | 28 ft | 12 kts | 30° |
| 2026-04-25 19:11 | -2.14961 | -79.88298 | 28 ft | 12 kts | 30° |
| 2026-04-25 19:12 | -2.14889 | -79.88257 | 28 ft | 12 kts | 30° |
| 2026-04-25 19:12 | -2.14828 | -79.88222 | 28 ft | 6 kts | 29° |
| 2026-04-25 19:12 | -2.14791 | -79.88226 | 27 ft | 6 kts | 315° |
| 2026-04-25 19:12 | -2.14770 | -79.88260 | 27 ft | 4 kts | 300° |
| 2026-04-25 19:13 | -2.14762 | -79.88273 | 27 ft | 0 kts | 300° |